メインページ
METAR-TAF:

METAR-TAF

空港 :

シェルブルック, ケベック州, カナダ

緯度: 45-24N, 経度: 071-53W, 海抜: 170m

現時点の気象観測

当レポートは59分前の15:00(UTC)に作成
無風
気温 -19°C
湿度 77%
気圧 1032 hPa
視程: 14.5km
高度25000ftの雲はほとんどない

METAR: CYSC 181500Z AUTO 00000KT 9SM FEW250 M19/M22 A3047 RMK SLP347

時間: 10:59 (15:59 UTC)

予報

当レポートは5時間18分前の10:41(UTC)に作成
予報は18日の 11時(UTC)から 18日の 23時(UTC)まで有効
変向風 3kt
視程: 10km
高度2000ftの雲は散在している
高度20000ftの千切れ雲あり
18日の 11時(UTC)から 18日の 15時(UTC)まで一時的に
高度2000ftの千切れ雲あり
18日の 2100時(UTC)から
の風 5kt
視程: 10km
高度9000ftの千切れ雲あり
弱いにわか雪

TAF: CYSC 181041Z 1811/1823 VRB03KT P6SM SCT020 BKN200 TEMPO 1811/1815 BKN020 FM182100 09005KT P6SM -SHSN BKN090 RMK FCST BASED ON AUTO OBS. NXT FCST BY 181800Z

4,000以上の空港の気象観測と天気予報(METAR報とTAF報)

利用可能な観測所は地図上に黄色い丸と赤い丸で示す。

丸の上にカーソルを重ねると観測所名を参照できる。

次にクリックすると気象観測と天気予報を参照できる。

マップの切り替え:黒色「×」印の緑ボタンをクリックして拡大、「-」印の緑ボタンをクリックして縮小、緑色の三角印をクリックして隣りの地図に切り替え


METAR-TAF: